Main page
Satellite images 15-day forecastsClimateMarine weather Cyclones Lightning AirportsFAQ Newsletter About
Weather : Europe Africa North America South America Asia Australia-Oceania Others
Languages Contact

Mangalore, India

Bajpe

latitude: 12-55N, longitude: 074-53E, elevation: 102 m


METAR: out of date (37038 hours)
short-TAF: VOML 171500Z 1718/1803 09005KT 6000 SCT015
long-TAF: VOML 171500Z 1718/1824 09005KT 6000 SCT015 BECMG 1806/1807 27010KT TEMPO 1809/1815 SCT015 FEW025CB SCT080 BECMG 1818/1819 09005KT

Time: 20:58 (15:28 UTC)

Forecast

The report was made 46 minutes ago, at 14:42 UTC  
Forecast valid from 17 at 18 UTC to 18 at 03 UTC
Wind 05 kt from east
Visibility 6000 m
Scattered clouds at a height of 1500 ft

Forecast

The report was made 48 minutes ago, at 14:40 UTC  
Forecast valid from 17 at 18 UTC to 18 at 24 UTC
Wind 05 kt from east
Visibility 6000 m
Scattered clouds at a height of 1500 ft
Becoming
from 18 at 06 UTC to 18 at 07 UTC
Wind 10 kt from west
Temporary
from 18 at 09 UTC to 18 at 15 UTC
Scattered clouds at a height of 1500 ft
Few clouds at a height of 2500 ft , Cumulonimbus.
Scattered clouds at a height of 8000 ft
Becoming
from 18 at 18 UTC to 18 at 19 UTC
Wind 05 kt from east
The information on this site is subject to a disclaimer
Weather : Europe Africa North America South America Asia Australia-Oceania Others
Satellite images 15-day forecastsClimateMarine weather Cyclones Lightning AirportsFAQ Languages Contact Newsletter About